< < Back
Terminal Aerodrome Forecast


Current Version              Previous Versions:   1  2  3  4  5  6  7  8  9  

Terminal Aerodrome Forecast

176
FTUS42 KFFC 242320
TAFPDK
TAF
KPDK 242320Z 2500/2524 13005KT P6SM SCT100
     FM250100 VRB03KT P6SM SCT150
     FM251500 VRB03KT P6SM SCT040
     FM251700 VRB03KT P6SM BKN050=

Latest METAR

448
SAUS70 KWBC 250400 RRD
MTRPDK
METAR KPDK 250353Z AUTO 00000KT 10SM CLR 23/22 A3022 RMK AO2 SLP216
T02330217


USA.gov is the U.S. government's official web portal to all federal, state and local government web resources and services.